sensor_id;sensor_type;location;lat;lon;timestamp;pressure;altitude;pressure_sealevel;temperature
20867;BMP280;10593;48.398;10.698;2022-08-21T00:01:28;96308.47;;;25.01
20867;BMP280;10593;48.398;10.698;2022-08-21T00:03:55;96306.75;;;25.00
20867;BMP280;10593;48.398;10.698;2022-08-21T00:06:21;96307.69;;;24.99
20867;BMP280;10593;48.398;10.698;2022-08-21T00:08:48;96306.03;;;24.98
20867;BMP280;10593;48.398;10.698;2022-08-21T00:11:14;96297.41;;;24.96
20867;BMP280;10593;48.398;10.698;2022-08-21T00:13:40;96301.00;;;24.95
20867;BMP280;10593;48.398;10.698;2022-08-21T00:16:06;96297.66;;;24.93
20867;BMP280;10593;48.398;10.698;2022-08-21T00:18:32;96298.59;;;24.92
20867;BMP280;10593;48.398;10.698;2022-08-21T00:20:58;96296.19;;;24.89
20867;BMP280;10593;48.398;10.698;2022-08-21T00:23:24;96297.16;;;24.88
20867;BMP280;10593;48.398;10.698;2022-08-21T00:25:50;96290.31;;;24.86
20867;BMP280;10593;48.398;10.698;2022-08-21T00:28:16;96288.63;;;24.85
20867;BMP280;10593;48.398;10.698;2022-08-21T00:30:42;96286.97;;;24.84
20867;BMP280;10593;48.398;10.698;2022-08-21T00:33:10;96281.81;;;24.82
20867;BMP280;10593;48.398;10.698;2022-08-21T00:35:40;96287.28;;;24.79
20867;BMP280;10593;48.398;10.698;2022-08-21T00:38:07;96281.31;;;24.77
20867;BMP280;10593;48.398;10.698;2022-08-21T00:40:45;96283.09;;;24.77
20867;BMP280;10593;48.398;10.698;2022-08-21T00:43:15;96276.28;;;24.74
20867;BMP280;10593;48.398;10.698;2022-08-21T00:45:41;96270.28;;;24.72
20867;BMP280;10593;48.398;10.698;2022-08-21T00:48:07;96273.03;;;24.71
20867;BMP280;10593;48.398;10.698;2022-08-21T00:50:40;96275.66;;;24.71
20867;BMP280;10593;48.398;10.698;2022-08-21T00:53:09;96267.88;;;24.69
20867;BMP280;10593;48.398;10.698;2022-08-21T00:55:36;96268.09;;;24.66
20867;BMP280;10593;48.398;10.698;2022-08-21T00:58:05;96271.59;;;24.67
20867;BMP280;10593;48.398;10.698;2022-08-21T01:00:36;96270.00;;;24.64
20867;BMP280;10593;48.398;10.698;2022-08-21T01:03:12;96272.63;;;24.64
20867;BMP280;10593;48.398;10.698;2022-08-21T01:05:39;96273.69;;;24.62
20867;BMP280;10593;48.398;10.698;2022-08-21T01:08:07;96267.72;;;24.60
20867;BMP280;10593;48.398;10.698;2022-08-21T01:10:35;96276.53;;;24.59
20867;BMP280;10593;48.398;10.698;2022-08-21T01:13:04;96272.34;;;24.56
20867;BMP280;10593;48.398;10.698;2022-08-21T01:15:36;96275.09;;;24.55
20867;BMP280;10593;48.398;10.698;2022-08-21T01:18:07;96273.41;;;24.54
20867;BMP280;10593;48.398;10.698;2022-08-21T01:20:35;96275.19;;;24.53
20867;BMP280;10593;48.398;10.698;2022-08-21T01:23:04;96274.44;;;24.51
20867;BMP280;10593;48.398;10.698;2022-08-21T01:25:32;96278.03;;;24.50
20867;BMP280;10593;48.398;10.698;2022-08-21T01:28:06;96273.72;;;24.49
20867;BMP280;10593;48.398;10.698;2022-08-21T01:30:36;96273.00;;;24.47
20867;BMP280;10593;48.398;10.698;2022-08-21T01:33:02;96268.66;;;24.46
20867;BMP280;10593;48.398;10.698;2022-08-21T01:35:29;96272.22;;;24.45
20867;BMP280;10593;48.398;10.698;2022-08-21T01:37:55;96275.00;;;24.44
20867;BMP280;10593;48.398;10.698;2022-08-21T01:40:22;96273.31;;;24.43
20867;BMP280;10593;48.398;10.698;2022-08-21T01:42:48;96272.47;;;24.42
20867;BMP280;10593;48.398;10.698;2022-08-21T01:45:15;96273.41;;;24.41
20867;BMP280;10593;48.398;10.698;2022-08-21T01:47:42;96263.94;;;24.39
20867;BMP280;10593;48.398;10.698;2022-08-21T01:50:15;96265.75;;;24.38
20867;BMP280;10593;48.398;10.698;2022-08-21T01:52:41;96264.91;;;24.38
20867;BMP280;10593;48.398;10.698;2022-08-21T01:55:09;96262.41;;;24.36
20867;BMP280;10593;48.398;10.698;2022-08-21T01:57:35;96262.63;;;24.33
20867;BMP280;10593;48.398;10.698;2022-08-21T02:00:03;96254.75;;;24.33
20867;BMP280;10593;48.398;10.698;2022-08-21T02:02:28;96254.00;;;24.31
20867;BMP280;10593;48.398;10.698;2022-08-21T02:04:54;96254.94;;;24.30
20867;BMP280;10593;48.398;10.698;2022-08-21T02:07:20;96248.97;;;24.28
20867;BMP280;10593;48.398;10.698;2022-08-21T02:09:46;96244.66;;;24.27
20867;BMP280;10593;48.398;10.698;2022-08-21T02:12:12;96251.81;;;24.25
20867;BMP280;10593;48.398;10.698;2022-08-21T02:14:38;96247.59;;;24.23
20867;BMP280;10593;48.398;10.698;2022-08-21T02:17:04;96235.56;;;24.20
20867;BMP280;10593;48.398;10.698;2022-08-21T02:19:30;96240.91;;;24.19
20867;BMP280;10593;48.398;10.698;2022-08-21T02:21:55;96242.69;;;24.18
20867;BMP280;10593;48.398;10.698;2022-08-21T02:24:21;96248.06;;;24.17
20867;BMP280;10593;48.398;10.698;2022-08-21T02:26:47;96249.84;;;24.16
20867;BMP280;10593;48.398;10.698;2022-08-21T02:29:12;96245.66;;;24.14
20867;BMP280;10593;48.398;10.698;2022-08-21T02:31:38;96248.38;;;24.12
20867;BMP280;10593;48.398;10.698;2022-08-21T02:34:04;96243.22;;;24.11
20867;BMP280;10593;48.398;10.698;2022-08-21T02:36:30;96238.09;;;24.09
20867;BMP280;10593;48.398;10.698;2022-08-21T02:38:56;96243.34;;;24.09
20867;BMP280;10593;48.398;10.698;2022-08-21T02:41:22;96237.38;;;24.07
20867;BMP280;10593;48.398;10.698;2022-08-21T02:43:49;96240.09;;;24.06
20867;BMP280;10593;48.398;10.698;2022-08-21T02:46:17;96246.31;;;24.05
20867;BMP280;10593;48.398;10.698;2022-08-21T02:48:44;96242.00;;;24.04
20867;BMP280;10593;48.398;10.698;2022-08-21T02:51:15;96242.94;;;24.03
20867;BMP280;10593;48.398;10.698;2022-08-21T02:53:43;96244.00;;;24.00
20867;BMP280;10593;48.398;10.698;2022-08-21T02:56:12;96243.16;;;24.00
20867;BMP280;10593;48.398;10.698;2022-08-21T02:58:50;96239.78;;;23.98
20867;BMP280;10593;48.398;10.698;2022-08-21T03:01:17;96245.16;;;23.96
20867;BMP280;10593;48.398;10.698;2022-08-21T03:03:46;96243.47;;;23.95
20867;BMP280;10593;48.398;10.698;2022-08-21T03:06:15;96245.38;;;23.93
20867;BMP280;10593;48.398;10.698;2022-08-21T03:08:41;96240.31;;;23.90
20867;BMP280;10593;48.398;10.698;2022-08-21T03:11:08;96247.38;;;23.90
20867;BMP280;10593;48.398;10.698;2022-08-21T03:13:34;96239.59;;;23.88
20867;BMP280;10593;48.398;10.698;2022-08-21T03:16:00;96242.34;;;23.87
20867;BMP280;10593;48.398;10.698;2022-08-21T03:18:26;96243.38;;;23.84
20867;BMP280;10593;48.398;10.698;2022-08-21T03:20:52;96246.09;;;23.83
20867;BMP280;10593;48.398;10.698;2022-08-21T03:23:18;96247.97;;;23.81
20867;BMP280;10593;48.398;10.698;2022-08-21T03:25:46;96255.13;;;23.79
20867;BMP280;10593;48.398;10.698;2022-08-21T03:28:18;96249.97;;;23.77
20867;BMP280;10593;48.398;10.698;2022-08-21T03:30:47;96250.09;;;23.76
20867;BMP280;10593;48.398;10.698;2022-08-21T03:33:14;96251.13;;;23.73
20867;BMP280;10593;48.398;10.698;2022-08-21T03:35:44;96244.31;;;23.71
20867;BMP280;10593;48.398;10.698;2022-08-21T03:38:11;96249.66;;;23.69
20867;BMP280;10593;48.398;10.698;2022-08-21T03:40:42;96249.75;;;23.68
20867;BMP280;10593;48.398;10.698;2022-08-21T03:43:09;96253.44;;;23.65
20867;BMP280;10593;48.398;10.698;2022-08-21T03:45:35;96250.06;;;23.63
20867;BMP280;10593;48.398;10.698;2022-08-21T03:48:04;96253.66;;;23.62
20867;BMP280;10593;48.398;10.698;2022-08-21T03:50:34;96256.41;;;23.61
20867;BMP280;10593;48.398;10.698;2022-08-21T03:53:00;96250.50;;;23.58
20867;BMP280;10593;48.398;10.698;2022-08-21T03:55:27;96256.72;;;23.57
20867;BMP280;10593;48.398;10.698;2022-08-21T03:57:53;96253.44;;;23.53
20867;BMP280;10593;48.398;10.698;2022-08-21T04:00:20;96254.47;;;23.51
20867;BMP280;10593;48.398;10.698;2022-08-21T04:02:47;96258.06;;;23.50
20867;BMP280;10593;48.398;10.698;2022-08-21T04:05:15;96259.94;;;23.48
20867;BMP280;10593;48.398;10.698;2022-08-21T04:08:00;96254.91;;;23.45
20867;BMP280;10593;48.398;10.698;2022-08-21T04:10:31;96251.56;;;23.43
20867;BMP280;10593;48.398;10.698;2022-08-21T04:12:57;96255.94;;;23.42
20867;BMP280;10593;48.398;10.698;2022-08-21T04:15:25;96257.84;;;23.40
20867;BMP280;10593;48.398;10.698;2022-08-21T04:17:51;96260.56;;;23.39
20867;BMP280;10593;48.398;10.698;2022-08-21T04:20:19;96259.72;;;23.38
20867;BMP280;10593;48.398;10.698;2022-08-21T04:22:45;96263.31;;;23.37
20867;BMP280;10593;48.398;10.698;2022-08-21T04:25:14;96265.94;;;23.37
20867;BMP280;10593;48.398;10.698;2022-08-21T04:27:40;96268.63;;;23.36
20867;BMP280;10593;48.398;10.698;2022-08-21T04:30:07;96270.53;;;23.34
20867;BMP280;10593;48.398;10.698;2022-08-21T04:32:35;96271.47;;;23.33
20867;BMP280;10593;48.398;10.698;2022-08-21T04:35:08;96270.75;;;23.31
20867;BMP280;10593;48.398;10.698;2022-08-21T04:37:34;96274.41;;;23.28
20867;BMP280;10593;48.398;10.698;2022-08-21T04:40:01;96274.53;;;23.27
20867;BMP280;10593;48.398;10.698;2022-08-21T04:42:28;96280.72;;;23.26
20867;BMP280;10593;48.398;10.698;2022-08-21T04:44:55;96286.06;;;23.24
20867;BMP280;10593;48.398;10.698;2022-08-21T04:47:22;96289.72;;;23.22
20867;BMP280;10593;48.398;10.698;2022-08-21T04:49:49;96282.78;;;23.21
20867;BMP280;10593;48.398;10.698;2022-08-21T04:52:21;96281.97;;;23.20
20867;BMP280;10593;48.398;10.698;2022-08-21T04:54:50;96288.16;;;23.19
20867;BMP280;10593;48.398;10.698;2022-08-21T04:57:17;96288.25;;;23.18
20867;BMP280;10593;48.398;10.698;2022-08-21T04:59:49;96285.72;;;23.16
20867;BMP280;10593;48.398;10.698;2022-08-21T05:02:17;96284.88;;;23.16
20867;BMP280;10593;48.398;10.698;2022-08-21T05:04:50;96289.28;;;23.15
20867;BMP280;10593;48.398;10.698;2022-08-21T05:07:23;96294.53;;;23.15
20867;BMP280;10593;48.398;10.698;2022-08-21T05:09:50;96289.28;;;23.15
20867;BMP280;10593;48.398;10.698;2022-08-21T05:12:17;96288.34;;;23.16
20867;BMP280;10593;48.398;10.698;2022-08-21T05:14:43;96287.50;;;23.16
20867;BMP280;10593;48.398;10.698;2022-08-21T05:17:09;96288.25;;;23.18
20867;BMP280;10593;48.398;10.698;2022-08-21T05:19:35;96288.25;;;23.18
20867;BMP280;10593;48.398;10.698;2022-08-21T05:22:01;96298.53;;;23.21
20867;BMP280;10593;48.398;10.698;2022-08-21T05:24:27;96290.66;;;23.21
20867;BMP280;10593;48.398;10.698;2022-08-21T05:26:53;96287.94;;;23.22
20867;BMP280;10593;48.398;10.698;2022-08-21T05:29:19;96289.50;;;23.25
20867;BMP280;10593;48.398;10.698;2022-08-21T05:31:46;96294.56;;;23.28
20867;BMP280;10593;48.398;10.698;2022-08-21T05:34:17;96295.19;;;23.31
20867;BMP280;10593;48.398;10.698;2022-08-21T05:36:43;96300.25;;;23.34
20867;BMP280;10593;48.398;10.698;2022-08-21T05:39:09;96295.72;;;23.36
20867;BMP280;10593;48.398;10.698;2022-08-21T05:41:34;96296.38;;;23.40
20867;BMP280;10593;48.398;10.698;2022-08-21T05:44:00;96299.59;;;23.43
20867;BMP280;10593;48.398;10.698;2022-08-21T05:46:27;96293.22;;;23.47
20867;BMP280;10593;48.398;10.698;2022-08-21T05:48:53;96291.22;;;23.51
20867;BMP280;10593;48.398;10.698;2022-08-21T05:51:18;96292.72;;;23.55
20867;BMP280;10593;48.398;10.698;2022-08-21T05:53:45;96294.16;;;23.58
20867;BMP280;10593;48.398;10.698;2022-08-21T05:56:13;96300.78;;;23.64
20867;BMP280;10593;48.398;10.698;2022-08-21T05:58:39;96299.63;;;23.68
20867;BMP280;10593;48.398;10.698;2022-08-21T06:01:06;96298.38;;;23.73
20867;BMP280;10593;48.398;10.698;2022-08-21T06:03:37;96297.97;;;23.79
20867;BMP280;10593;48.398;10.698;2022-08-21T06:06:03;96296.84;;;23.83
20867;BMP280;10593;48.398;10.698;2022-08-21T06:08:29;96292.09;;;23.88
20867;BMP280;10593;48.398;10.698;2022-08-21T06:10:59;96301.25;;;23.95
20867;BMP280;10593;48.398;10.698;2022-08-21T06:13:27;96294.59;;;24.02
20867;BMP280;10593;48.398;10.698;2022-08-21T06:16:11;96298.50;;;24.09
20867;BMP280;10593;48.398;10.698;2022-08-21T06:18:38;96298.06;;;24.15
20867;BMP280;10593;48.398;10.698;2022-08-21T06:21:05;96300.28;;;24.21
20867;BMP280;10593;48.398;10.698;2022-08-21T06:23:31;96291.13;;;24.27
20867;BMP280;10593;48.398;10.698;2022-08-21T06:25:57;96296.66;;;24.35
20867;BMP280;10593;48.398;10.698;2022-08-21T06:28:22;96297.06;;;24.41
20867;BMP280;10593;48.398;10.698;2022-08-21T06:30:48;96305.25;;;24.49
20867;BMP280;10593;48.398;10.698;2022-08-21T06:33:14;96291.59;;;24.57
20867;BMP280;10593;48.398;10.698;2022-08-21T06:35:39;96294.38;;;24.66
20867;BMP280;10593;48.398;10.698;2022-08-21T06:38:05;96294.69;;;24.74
20867;BMP280;10593;48.398;10.698;2022-08-21T06:40:31;96296.53;;;24.85
20867;BMP280;10593;48.398;10.698;2022-08-21T06:42:58;96298.50;;;24.94
20867;BMP280;10593;48.398;10.698;2022-08-21T06:45:30;96293.25;;;25.05
20867;BMP280;10593;48.398;10.698;2022-08-21T06:47:55;96294.28;;;25.15
20867;BMP280;10593;48.398;10.698;2022-08-21T06:50:21;96294.47;;;25.24
20867;BMP280;10593;48.398;10.698;2022-08-21T06:52:47;96301.66;;;25.33
20867;BMP280;10593;48.398;10.698;2022-08-21T06:55:13;96302.78;;;25.42
20867;BMP280;10593;48.398;10.698;2022-08-21T06:57:38;96296.94;;;25.49
20867;BMP280;10593;48.398;10.698;2022-08-21T07:00:07;96296.25;;;25.58
20867;BMP280;10593;48.398;10.698;2022-08-21T07:02:34;96296.47;;;25.66
20867;BMP280;10593;48.398;10.698;2022-08-21T07:05:00;96301.28;;;25.72
20867;BMP280;10593;48.398;10.698;2022-08-21T07:07:26;96293.78;;;25.79
20867;BMP280;10593;48.398;10.698;2022-08-21T07:09:51;96298.47;;;25.86
20867;BMP280;10593;48.398;10.698;2022-08-21T07:12:17;96301.47;;;25.92
20867;BMP280;10593;48.398;10.698;2022-08-21T07:14:43;96293.94;;;25.99
20867;BMP280;10593;48.398;10.698;2022-08-21T07:17:09;96294.41;;;26.04
20867;BMP280;10593;48.398;10.698;2022-08-21T07:19:34;96287.00;;;26.09
20867;BMP280;10593;48.398;10.698;2022-08-21T07:22:01;96297.16;;;26.13
20867;BMP280;10593;48.398;10.698;2022-08-21T07:24:27;96293.34;;;26.17
20867;BMP280;10593;48.398;10.698;2022-08-21T07:26:53;96289.50;;;26.21
20867;BMP280;10593;48.398;10.698;2022-08-21T07:29:19;96292.75;;;26.25
20867;BMP280;10593;48.398;10.698;2022-08-21T07:31:45;96291.53;;;26.29
20867;BMP280;10593;48.398;10.698;2022-08-21T07:34:11;96284.34;;;26.31
20867;BMP280;10593;48.398;10.698;2022-08-21T07:36:36;96287.47;;;26.36
20867;BMP280;10593;48.398;10.698;2022-08-21T07:39:02;96286.38;;;26.38
20867;BMP280;10593;48.398;10.698;2022-08-21T07:41:29;96282.66;;;26.41
20867;BMP280;10593;48.398;10.698;2022-08-21T07:43:59;96283.38;;;26.43
20867;BMP280;10593;48.398;10.698;2022-08-21T07:46:25;96291.88;;;26.46
20867;BMP280;10593;48.398;10.698;2022-08-21T07:48:52;96282.94;;;26.49
20867;BMP280;10593;48.398;10.698;2022-08-21T07:51:21;96278.38;;;26.51
20867;BMP280;10593;48.398;10.698;2022-08-21T07:53:51;96287.72;;;26.55
20867;BMP280;10593;48.398;10.698;2022-08-21T07:56:18;96279.69;;;26.56
20867;BMP280;10593;48.398;10.698;2022-08-21T07:58:43;96274.03;;;26.61
20867;BMP280;10593;48.398;10.698;2022-08-21T08:01:09;96273.09;;;26.62
20867;BMP280;10593;48.398;10.698;2022-08-21T08:03:35;96276.44;;;26.64
20867;BMP280;10593;48.398;10.698;2022-08-21T08:06:01;96277.00;;;26.67
20867;BMP280;10593;48.398;10.698;2022-08-21T08:08:27;96271.63;;;26.69
20867;BMP280;10593;48.398;10.698;2022-08-21T08:10:56;96274.97;;;26.71
20867;BMP280;10593;48.398;10.698;2022-08-21T08:13:22;96276.63;;;26.72
20867;BMP280;10593;48.398;10.698;2022-08-21T08:15:48;96280.84;;;26.74
20867;BMP280;10593;48.398;10.698;2022-08-21T08:18:14;96272.81;;;26.76
20867;BMP280;10593;48.398;10.698;2022-08-21T08:20:39;96281.44;;;26.78
20867;BMP280;10593;48.398;10.698;2022-08-21T08:23:09;96283.38;;;26.76
20867;BMP280;10593;48.398;10.698;2022-08-21T08:25:36;96269.22;;;26.77
20867;BMP280;10593;48.398;10.698;2022-08-21T08:28:03;96270.03;;;26.77
20867;BMP280;10593;48.398;10.698;2022-08-21T08:30:29;96263.94;;;26.77
20867;BMP280;10593;48.398;10.698;2022-08-21T08:32:55;96262.97;;;26.78
20867;BMP280;10593;48.398;10.698;2022-08-21T08:35:22;96259.38;;;26.79
20867;BMP280;10593;48.398;10.698;2022-08-21T08:37:48;96257.56;;;26.79
20867;BMP280;10593;48.398;10.698;2022-08-21T08:40:39;96265.34;;;26.81
20867;BMP280;10593;48.398;10.698;2022-08-21T08:43:07;96259.22;;;26.80
20867;BMP280;10593;48.398;10.698;2022-08-21T08:45:39;96253.84;;;26.82
20867;BMP280;10593;48.398;10.698;2022-08-21T08:48:09;96256.38;;;26.83
20867;BMP280;10593;48.398;10.698;2022-08-21T08:50:56;96254.53;;;26.84
20867;BMP280;10593;48.398;10.698;2022-08-21T08:53:48;96257.19;;;26.84
20867;BMP280;10593;48.398;10.698;2022-08-21T08:56:19;96261.38;;;26.86
20867;BMP280;10593;48.398;10.698;2022-08-21T08:58:47;96263.88;;;26.88
20867;BMP280;10593;48.398;10.698;2022-08-21T09:01:19;96256.81;;;26.88
20867;BMP280;10593;48.398;10.698;2022-08-21T09:03:47;96254.88;;;26.90
20867;BMP280;10593;48.398;10.698;2022-08-21T09:09:22;96254.88;;;26.90
20867;BMP280;10593;48.398;10.698;2022-08-21T09:12:17;96261.00;;;26.91
20867;BMP280;10593;48.398;10.698;2022-08-21T09:17:44;96253.81;;;26.93
20867;BMP280;10593;48.398;10.698;2022-08-21T09:26:27;96243.97;;;26.95
20867;BMP280;10593;48.398;10.698;2022-08-21T09:28:58;96246.34;;;26.98
20867;BMP280;10593;48.398;10.698;2022-08-21T09:31:35;96253.19;;;27.00
20867;BMP280;10593;48.398;10.698;2022-08-21T09:34:07;96246.94;;;27.01
20867;BMP280;10593;48.398;10.698;2022-08-21T09:36:46;96245.00;;;27.03
20867;BMP280;10593;48.398;10.698;2022-08-21T09:39:30;96244.88;;;27.05
20867;BMP280;10593;48.398;10.698;2022-08-21T09:42:00;96242.09;;;27.06
20867;BMP280;10593;48.398;10.698;2022-08-21T09:44:31;96256.75;;;27.10
20867;BMP280;10593;48.398;10.698;2022-08-21T09:46:57;96245.97;;;27.13
20867;BMP280;10593;48.398;10.698;2022-08-21T09:49:34;96246.66;;;27.15
20867;BMP280;10593;48.398;10.698;2022-08-21T09:52:04;96239.59;;;27.16
20867;BMP280;10593;48.398;10.698;2022-08-21T09:54:39;96247.25;;;27.19
20867;BMP280;10593;48.398;10.698;2022-08-21T09:59:54;96238.09;;;27.23
20867;BMP280;10593;48.398;10.698;2022-08-21T10:02:32;96236.16;;;27.25
20867;BMP280;10593;48.398;10.698;2022-08-21T10:05:02;96238.69;;;27.26
20867;BMP280;10593;48.398;10.698;2022-08-21T10:07:32;96230.50;;;27.29
20867;BMP280;10593;48.398;10.698;2022-08-21T10:10:29;96229.44;;;27.32
20867;BMP280;10593;48.398;10.698;2022-08-21T10:13:17;96219.56;;;27.34
20867;BMP280;10593;48.398;10.698;2022-08-21T10:18:42;96221.94;;;27.37
20867;BMP280;10593;48.398;10.698;2022-08-21T10:21:31;96226.97;;;27.40
20867;BMP280;10593;48.398;10.698;2022-08-21T10:24:36;96223.34;;;27.41
20867;BMP280;10593;48.398;10.698;2022-08-21T10:30:50;96220.72;;;27.41
20867;BMP280;10593;48.398;10.698;2022-08-21T10:33:35;96218.66;;;27.44
20867;BMP280;10593;48.398;10.698;2022-08-21T10:36:13;96209.66;;;27.47
20867;BMP280;10593;48.398;10.698;2022-08-21T10:39:24;96214.66;;;27.50
20867;BMP280;10593;48.398;10.698;2022-08-21T10:42:22;96208.41;;;27.51
20867;BMP280;10593;48.398;10.698;2022-08-21T10:45:14;96201.34;;;27.51
20867;BMP280;10593;48.398;10.698;2022-08-21T10:47:48;96203.72;;;27.54
20867;BMP280;10593;48.398;10.698;2022-08-21T10:50:22;96205.13;;;27.58
20867;BMP280;10593;48.398;10.698;2022-08-21T10:56:01;96200.31;;;27.63
20867;BMP280;10593;48.398;10.698;2022-08-21T10:58:45;96199.34;;;27.64
20867;BMP280;10593;48.398;10.698;2022-08-21T11:01:42;96193.91;;;27.66
20867;BMP280;10593;48.398;10.698;2022-08-21T11:04:49;96192.81;;;27.68
20867;BMP280;10593;48.398;10.698;2022-08-21T11:07:43;96195.34;;;27.70
20867;BMP280;10593;48.398;10.698;2022-08-21T11:10:23;96192.31;;;27.74
20867;BMP280;10593;48.398;10.698;2022-08-21T11:12:58;96193.84;;;27.77
20867;BMP280;10593;48.398;10.698;2022-08-21T11:15:36;96189.28;;;27.79
20867;BMP280;10593;48.398;10.698;2022-08-21T11:18:45;96183.00;;;27.80
20867;BMP280;10593;48.398;10.698;2022-08-21T11:21:32;96186.25;;;27.83
20867;BMP280;10593;48.398;10.698;2022-08-21T11:24:31;96186.25;;;27.83
20867;BMP280;10593;48.398;10.698;2022-08-21T11:30:05;96181.81;;;27.84
20867;BMP280;10593;48.398;10.698;2022-08-21T11:38:45;96175.94;;;27.80
20867;BMP280;10593;48.398;10.698;2022-08-21T11:44:18;96161.75;;;27.81
20867;BMP280;10593;48.398;10.698;2022-08-21T11:47:10;96165.09;;;27.83
20867;BMP280;10593;48.398;10.698;2022-08-21T11:52:47;96164.81;;;27.86
20867;BMP280;10593;48.398;10.698;2022-08-21T11:55:30;96155.81;;;27.89
20867;BMP280;10593;48.398;10.698;2022-08-21T11:58:05;96155.53;;;27.92
20867;BMP280;10593;48.398;10.698;2022-08-21T12:00:42;96161.50;;;27.94
20867;BMP280;10593;48.398;10.698;2022-08-21T12:03:42;96161.28;;;27.97
20867;BMP280;10593;48.398;10.698;2022-08-21T12:06:13;96160.03;;;28.01
20867;BMP280;10593;48.398;10.698;2022-08-21T12:08:43;96155.44;;;28.03
20867;BMP280;10593;48.398;10.698;2022-08-21T12:11:24;96152.50;;;28.06
20867;BMP280;10593;48.398;10.698;2022-08-21T12:14:11;96157.41;;;28.10
20867;BMP280;10593;48.398;10.698;2022-08-21T12:16:41;96148.50;;;28.11
20867;BMP280;10593;48.398;10.698;2022-08-21T12:22:13;96145.44;;;28.16
20867;BMP280;10593;48.398;10.698;2022-08-21T12:24:48;96136.28;;;28.19
20867;BMP280;10593;48.398;10.698;2022-08-21T12:27:44;96139.47;;;28.23
20867;BMP280;10593;48.398;10.698;2022-08-21T12:30:42;96136.84;;;28.23
20867;BMP280;10593;48.398;10.698;2022-08-21T12:33:34;96133.09;;;28.25
20867;BMP280;10593;48.398;10.698;2022-08-21T12:36:21;96127.66;;;28.27
20867;BMP280;10593;48.398;10.698;2022-08-21T12:38:59;96122.13;;;28.30
20867;BMP280;10593;48.398;10.698;2022-08-21T12:41:32;96121.88;;;28.33
20867;BMP280;10593;48.398;10.698;2022-08-21T12:44:11;96117.28;;;28.35
20867;BMP280;10593;48.398;10.698;2022-08-21T12:46:58;96108.25;;;28.37
20867;BMP280;10593;48.398;10.698;2022-08-21T12:52:16;96108.66;;;28.42
20867;BMP280;10593;48.398;10.698;2022-08-21T12:54:45;96104.91;;;28.45
20867;BMP280;10593;48.398;10.698;2022-08-21T12:57:25;96106.41;;;28.47
20867;BMP280;10593;48.398;10.698;2022-08-21T13:00:03;96103.53;;;28.50
20867;BMP280;10593;48.398;10.698;2022-08-21T13:02:37;96102.53;;;28.51
20867;BMP280;10593;48.398;10.698;2022-08-21T13:05:15;96094.44;;;28.53
20867;BMP280;10593;48.398;10.698;2022-08-21T13:07:47;96096.81;;;28.56
20867;BMP280;10593;48.398;10.698;2022-08-21T13:10:28;96098.50;;;28.57
20867;BMP280;10593;48.398;10.698;2022-08-21T13:13:01;96091.25;;;28.59
20867;BMP280;10593;48.398;10.698;2022-08-21T13:15:35;96097.25;;;28.61
20867;BMP280;10593;48.398;10.698;2022-08-21T13:18:05;96098.78;;;28.63
20867;BMP280;10593;48.398;10.698;2022-08-21T13:20:38;96099.31;;;28.67
20867;BMP280;10593;48.398;10.698;2022-08-21T13:23:34;96089.59;;;28.67
20867;BMP280;10593;48.398;10.698;2022-08-21T13:26:00;96088.31;;;28.71
20867;BMP280;10593;48.398;10.698;2022-08-21T13:28:35;96092.50;;;28.74
20867;BMP280;10593;48.398;10.698;2022-08-21T13:31:08;96088.72;;;28.76
20867;BMP280;10593;48.398;10.698;2022-08-21T13:33:40;96093.75;;;28.79
20867;BMP280;10593;48.398;10.698;2022-08-21T13:36:27;96083.97;;;28.80
20867;BMP280;10593;48.398;10.698;2022-08-21T13:38:55;96079.38;;;28.82
20867;BMP280;10593;48.398;10.698;2022-08-21T13:41:27;96087.06;;;28.85
20867;BMP280;10593;48.398;10.698;2022-08-21T13:44:14;96081.63;;;28.86
20867;BMP280;10593;48.398;10.698;2022-08-21T13:46:41;96088.44;;;28.89
20867;BMP280;10593;48.398;10.698;2022-08-21T13:49:09;96085.69;;;28.90
20867;BMP280;10593;48.398;10.698;2022-08-21T13:51:36;96087.91;;;28.95
20867;BMP280;10593;48.398;10.698;2022-08-21T13:54:21;96082.47;;;28.96
20867;BMP280;10593;48.398;10.698;2022-08-21T13:56:47;96084.13;;;28.97
20867;BMP280;10593;48.398;10.698;2022-08-21T13:59:29;96083.84;;;29.00
20867;BMP280;10593;48.398;10.698;2022-08-21T14:02:17;96085.50;;;29.01
20867;BMP280;10593;48.398;10.698;2022-08-21T14:04:56;96078.41;;;29.02
20867;BMP280;10593;48.398;10.698;2022-08-21T14:07:40;96087.91;;;29.04
20867;BMP280;10593;48.398;10.698;2022-08-21T14:10:19;96085.09;;;29.06
20867;BMP280;10593;48.398;10.698;2022-08-21T14:16:02;96083.97;;;29.08
20867;BMP280;10593;48.398;10.698;2022-08-21T14:18:29;96082.88;;;29.11
20867;BMP280;10593;48.398;10.698;2022-08-21T14:21:09;96088.00;;;29.12
20867;BMP280;10593;48.398;10.698;2022-08-21T14:23:35;96081.72;;;29.13
20867;BMP280;10593;48.398;10.698;2022-08-21T14:26:04;96084.38;;;29.13
20867;BMP280;10593;48.398;10.698;2022-08-21T14:28:40;96081.72;;;29.13
20867;BMP280;10593;48.398;10.698;2022-08-21T14:31:21;96077.41;;;29.12
20867;BMP280;10593;48.398;10.698;2022-08-21T14:33:48;96084.53;;;29.12
20867;BMP280;10593;48.398;10.698;2022-08-21T14:36:14;96087.31;;;29.10
20867;BMP280;10593;48.398;10.698;2022-08-21T14:38:40;96084.66;;;29.10
20867;BMP280;10593;48.398;10.698;2022-08-21T14:41:21;96083.97;;;29.08
20867;BMP280;10593;48.398;10.698;2022-08-21T14:43:49;96085.94;;;29.06
20867;BMP280;10593;48.398;10.698;2022-08-21T14:46:26;96078.97;;;29.05
20867;BMP280;10593;48.398;10.698;2022-08-21T14:48:53;96074.78;;;29.03
20867;BMP280;10593;48.398;10.698;2022-08-21T14:51:19;96074.09;;;29.01
20867;BMP280;10593;48.398;10.698;2022-08-21T14:53:45;96067.16;;;29.00
20867;BMP280;10593;48.398;10.698;2022-08-21T14:56:12;96073.41;;;28.99
20867;BMP280;10593;48.398;10.698;2022-08-21T14:58:46;96067.28;;;28.98
20867;BMP280;10593;48.398;10.698;2022-08-21T15:01:17;96073.41;;;28.99
20867;BMP280;10593;48.398;10.698;2022-08-21T15:03:44;96068.13;;;28.99
20867;BMP280;10593;48.398;10.698;2022-08-21T15:06:11;96068.13;;;28.99
20867;BMP280;10593;48.398;10.698;2022-08-21T15:08:37;96066.16;;;29.01